Time;durP1;ratioP1;P1;durP2;ratioP2;P2;SDS_P1;SDS_P2;PMS_P1;PMS_P2;Temp;Humidity;BMP_temperature;BMP_pressure;BME280_temperature;BME280_humidity;BME280_pressure;Samples;Min_cycle;Max_cycle;Signal;HPM_P1;HPM_P2
2021/01/08 00:00:55;;;;;;;6.07;5.13;;;;;;;6.70;63.65;101126.16;4906652;28;113559;-74
2021/01/08 00:03:21;;;;;;;7.78;5.25;;;;;;;6.70;63.52;101131.44;4904821;28;123217;-74
2021/01/08 00:05:49;;;;;;;5.95;4.97;;;;;;;6.69;63.41;101123.59;4886614;28;122783;-75
2021/01/08 00:08:19;;;;;;;6.57;4.88;;;;;;;6.68;63.63;101127.97;4905457;28;113788;-74
2021/01/08 00:10:47;;;;;;;5.97;4.63;;;;;;;6.68;63.46;101125.34;4899694;28;113515;-74
2021/01/08 00:13:15;;;;;;;6.25;4.70;;;;;;;6.67;63.86;101118.34;4906260;28;124077;-74
2021/01/08 00:15:41;;;;;;;6.20;4.80;;;;;;;6.67;63.69;101121.00;4903938;28;125714;-74
2021/01/08 00:18:08;;;;;;;6.22;4.85;;;;;;;6.70;63.76;101123.53;4897580;28;115324;-74
2021/01/08 00:20:35;;;;;;;6.40;5.00;;;;;;;6.70;63.76;101123.53;4907809;28;114788;-74
2021/01/08 00:23:01;;;;;;;6.78;5.20;;;;;;;6.72;63.66;101127.00;4883850;28;123892;-74
2021/01/08 00:25:28;;;;;;;6.70;4.93;;;;;;;6.73;63.76;101123.47;4907922;28;123157;-74
2021/01/08 00:27:56;;;;;;;6.68;5.15;;;;;;;6.74;63.50;101119.94;4903363;28;114325;-74
2021/01/08 00:30:23;;;;;;;6.88;4.75;;;;;;;6.75;63.54;101124.28;4904856;28;113906;-74
2021/01/08 00:32:50;;;;;;;5.75;4.60;;;;;;;6.76;63.57;101123.41;4899108;28;123810;-74
2021/01/08 00:35:17;;;;;;;6.72;4.97;;;;;;;6.76;63.49;101133.94;4879499;28;123289;-74
2021/01/08 00:37:43;;;;;;;6.10;4.55;;;;;;;6.75;63.78;101126.91;4887000;28;113213;-75
2021/01/08 00:40:10;;;;;;;6.80;4.80;;;;;;;6.76;63.70;101128.66;4907404;28;113273;-74
2021/01/08 00:42:37;;;;;;;6.63;4.68;;;;;;;6.76;63.81;101126.03;4900953;28;124035;-74
2021/01/08 00:45:05;;;;;;;8.68;5.00;;;;;;;6.76;63.71;101123.41;4890617;28;123409;-75
2021/01/08 00:47:32;;;;;;;7.43;4.88;;;;;;;6.76;63.58;101133.94;4897044;28;113698;-75
2021/01/08 00:49:59;;;;;;;5.55;4.43;;;;;;;6.77;63.83;101130.38;4883126;28;113269;-74
2021/01/08 00:52:25;;;;;;;6.20;4.75;;;;;;;6.77;63.60;101130.38;4900449;28;124015;-74
2021/01/08 00:54:52;;;;;;;6.88;4.72;;;;;;;6.79;63.66;101128.56;4895643;28;123096;-74
2021/01/08 00:57:29;;;;;;;6.35;4.78;;;;;;;6.81;63.83;101131.16;4882544;28;113358;-74
2021/01/08 00:59:56;;;;;;;7.30;4.72;;;;;;;6.82;63.55;101132.91;4903224;28;113368;-74
2021/01/08 01:02:22;;;;;;;6.07;4.43;;;;;;;6.82;63.82;101127.66;4900043;28;123012;-74
2021/01/08 01:04:49;;;;;;;7.88;4.78;;;;;;;6.82;63.81;101128.50;4878036;28;122899;-75
2021/01/08 01:07:16;;;;;;;6.78;4.07;;;;;;;6.82;63.79;101131.13;4898475;28;115546;-74
2021/01/08 01:09:42;;;;;;;6.38;4.32;;;;;;;6.82;63.65;101139.03;4902246;28;113794;-74
2021/01/08 01:12:09;;;;;;;6.88;4.50;;;;;;;6.83;64.02;101135.47;4900653;28;124082;-75
2021/01/08 01:14:36;;;;;;;7.15;4.13;;;;;;;6.83;63.81;101135.47;4897147;28;123897;-74
2021/01/08 01:17:03;;;;;;;9.32;4.20;;;;;;;6.83;63.94;101129.38;4900442;28;115272;-74
2021/01/08 01:19:30;;;;;;;6.15;4.28;;;;;;;6.83;63.55;101132.84;4885219;28;113108;-75
2021/01/08 01:21:57;;;;;;;6.47;3.80;;;;;;;6.83;63.97;101130.22;4881608;28;123010;-75
2021/01/08 01:24:24;;;;;;;6.47;3.95;;;;;;;6.83;63.92;101135.47;4893243;28;123218;-74
2021/01/08 01:27:01;;;;;;;6.03;4.00;;;;;;;6.85;64.01;101137.22;4903386;28;113434;-74
2021/01/08 01:29:27;;;;;;;6.88;3.97;;;;;;;6.86;64.07;101136.34;4905585;28;114025;-74
2021/01/08 01:31:54;;;;;;;4.88;3.80;;;;;;;6.87;63.93;101135.41;4887689;28;123057;-74
2021/01/08 01:34:21;;;;;;;6.32;4.03;;;;;;;6.88;64.05;101143.28;4901952;28;123764;-74
2021/01/08 01:36:47;;;;;;;5.90;4.18;;;;;;;6.91;63.81;101148.50;4901572;28;114564;-76
2021/01/08 01:39:14;;;;;;;5.35;3.75;;;;;;;6.92;64.01;101149.34;4885471;28;112935;-74
2021/01/08 01:41:42;;;;;;;5.00;3.88;;;;;;;6.94;63.52;101152.81;4898761;28;123108;-74
2021/01/08 01:44:09;;;;;;;9.55;3.97;;;;;;;6.95;63.86;101154.50;4905384;28;123107;-74
2021/01/08 01:46:35;;;;;;;7.03;4.25;;;;;;;6.96;63.57;101153.63;4888483;28;114763;-74
2021/01/08 01:49:02;;;;;;;6.32;4.25;;;;;;;6.96;63.49;101161.53;4904917;28;113938;-74
2021/01/08 01:51:29;;;;;;;7.95;4.07;;;;;;;6.98;63.50;101164.97;4891085;28;124023;-74
2021/01/08 01:53:56;;;;;;;5.07;3.58;;;;;;;6.97;63.64;101152.72;4894614;28;123546;-74
2021/01/08 01:56:23;;;;;;;5.68;3.40;;;;;;;6.96;63.58;101153.63;4899453;28;115075;-74
2021/01/08 01:58:49;;;;;;;5.15;3.25;;;;;;;6.97;63.49;101160.63;4900215;28;115803;-75
2021/01/08 02:01:16;;;;;;;6.45;3.70;;;;;;;6.96;63.54;101161.53;4911945;28;124341;-74
2021/01/08 02:03:50;;;;;;;6.05;3.60;;;;;;;6.95;63.54;101159.78;4884524;28;123641;-74
2021/01/08 02:06:23;;;;;;;5.47;3.53;;;;;;;6.94;63.59;101163.34;4903153;28;112556;-74
2021/01/08 02:08:58;;;;;;;4.50;3.28;;;;;;;6.93;63.79;101166.84;4889310;28;114111;-75
2021/01/08 02:11:27;;;;;;;5.95;3.60;;;;;;;6.93;63.62;101172.13;4907109;28;123740;-75
2021/01/08 02:14:10;;;;;;;5.72;3.53;;;;;;;6.92;63.87;101165.13;4901289;28;123956;-74
2021/01/08 02:16:38;;;;;;;5.68;3.80;;;;;;;6.91;63.62;101169.56;4880444;28;113335;-74
2021/01/08 02:19:11;;;;;;;5.22;3.92;;;;;;;6.91;63.66;101173.94;4897072;28;114229;-75
2021/01/08 02:21:44;;;;;;;5.40;3.53;;;;;;;6.91;63.71;101174.81;4884566;28;124499;-74
2021/01/08 02:24:28;;;;;;;4.95;3.42;;;;;;;6.91;63.72;101168.66;4897531;28;123973;-74
2021/01/08 02:26:55;;;;;;;6.50;3.78;;;;;;;6.92;63.35;101175.66;4897597;28;114196;-74
2021/01/08 02:29:23;;;;;;;5.68;3.80;;;;;;;6.93;64.03;101177.38;4898764;28;114478;-74
2021/01/08 02:31:51;;;;;;;6.60;4.03;;;;;;;6.93;63.78;101178.28;4894268;28;123207;-74
2021/01/08 02:34:17;;;;;;;5.65;4.05;;;;;;;6.94;63.53;101173.88;4895844;28;123695;-76
2021/01/08 02:36:45;;;;;;;7.20;4.13;;;;;;;6.97;63.52;101179.06;4884481;28;114094;-75
2021/01/08 02:39:12;;;;;;;8.13;4.13;;;;;;;6.99;63.77;101177.25;4868318;28;114118;-74
2021/01/08 02:41:45;;;;;;;7.60;4.50;;;;;;;6.99;63.55;101172.00;4900631;28;123601;-74
2021/01/08 02:44:14;;;;;;;8.63;4.43;;;;;;;7.02;63.63;101177.16;4899291;28;123052;-74
2021/01/08 02:46:43;;;;;;;7.03;4.47;;;;;;;7.04;63.63;101180.63;4896024;28;98822;-74
2021/01/08 02:49:10;;;;;;;6.50;4.72;;;;;;;7.04;63.56;101175.34;4899997;28;115317;-74
2021/01/08 02:51:38;;;;;;;6.10;4.72;;;;;;;7.04;63.72;101175.34;4901067;28;123505;-74
2021/01/08 02:54:07;;;;;;;6.40;4.80;;;;;;;7.04;63.36;101180.63;4901904;28;123450;-74
2021/01/08 02:56:41;;;;;;;7.60;4.90;;;;;;;7.05;63.78;101179.72;4903992;28;114084;-74
2021/01/08 02:59:10;;;;;;;9.77;5.13;;;;;;;7.07;63.78;101180.56;4906617;28;113936;-75
2021/01/08 03:01:38;;;;;;;10.38;5.68;;;;;;;7.08;63.50;101186.69;4899999;28;123671;-74
2021/01/08 03:04:06;;;;;;;7.85;5.65;;;;;;;7.07;63.52;101180.56;4879120;28;123957;-75
2021/01/08 03:06:33;;;;;;;7.47;5.22;;;;;;;7.06;63.51;101178.81;4876376;28;114193;-74
2021/01/08 03:09:01;;;;;;;7.00;5.13;;;;;;;7.04;63.44;101185.03;4896776;28;115008;-75
2021/01/08 03:11:28;;;;;;;6.60;4.57;;;;;;;7.00;63.53;101185.09;4896249;28;123843;-74
2021/01/08 03:13:55;;;;;;;5.70;4.75;;;;;;;6.99;63.76;101187.78;4922093;23;123459;-66
2021/01/08 03:16:23;;;;;;;7.70;5.07;;;;;;;6.97;63.63;101184.34;4948501;28;114677;-66
2021/01/08 03:18:50;;;;;;;5.63;4.30;;;;;;;6.97;63.37;101189.59;4933799;28;113137;-66
2021/01/08 03:21:17;;;;;;;5.70;3.92;;;;;;;6.95;63.74;101191.38;4931241;28;123469;-66
2021/01/08 03:23:43;;;;;;;5.30;4.03;;;;;;;6.92;63.16;101191.47;4949873;28;124142;-65
2021/01/08 03:26:10;;;;;;;5.10;3.90;;;;;;;6.90;63.38;101188.00;4942475;28;114704;-67
2021/01/08 03:28:37;;;;;;;6.43;4.05;;;;;;;6.88;63.49;101187.19;4947691;28;114277;-67
2021/01/08 03:31:03;;;;;;;5.30;3.75;;;;;;;6.87;63.33;101182.81;4925103;28;123167;-66
2021/01/08 03:33:30;;;;;;;5.65;3.95;;;;;;;6.87;63.84;101182.81;4948770;28;124090;-66
2021/01/08 03:35:56;;;;;;;5.65;3.95;;;;;;;6.88;63.61;101189.81;4925107;28;113745;-67
2021/01/08 03:38:23;;;;;;;6.00;4.28;;;;;;;6.88;63.38;101187.19;4948272;28;115139;-66
2021/01/08 03:40:49;;;;;;;5.43;4.30;;;;;;;6.89;63.71;101186.25;4946958;28;123935;-66
2021/01/08 03:43:16;;;;;;;5.72;3.90;;;;;;;6.89;63.54;101191.53;4943557;28;124134;-66
2021/01/08 03:45:42;;;;;;;3.83;3.00;;;;;;;6.88;63.48;101189.81;4945336;28;114070;-67
2021/01/08 03:48:10;;;;;;;4.05;2.95;;;;;;;6.86;63.45;101191.63;4950762;28;114346;-68
2021/01/08 03:50:38;;;;;;;4.03;2.88;;;;;;;6.83;63.35;101190.78;4945383;28;123760;-66
2021/01/08 03:53:05;;;;;;;4.85;2.60;;;;;;;6.82;63.65;101190.84;4925797;28;124598;-66
2021/01/08 03:55:32;;;;;;;3.25;2.58;;;;;;;6.78;63.52;101190.03;4948963;28;114354;-67
2021/01/08 03:58:00;;;;;;;4.00;2.50;;;;;;;6.76;63.48;101197.09;4907980;28;112593;-66
2021/01/08 04:00:26;;;;;;;3.72;2.47;;;;;;;6.74;63.33;101193.66;4949449;28;123745;-67
2021/01/08 04:02:53;;;;;;;3.75;2.30;;;;;;;6.72;63.19;101198.06;4950598;28;123873;-66
2021/01/08 04:05:20;;;;;;;3.40;2.30;;;;;;;6.71;63.46;101198.97;4953053;28;114319;-68
2021/01/08 04:07:46;;;;;;;3.78;2.55;;;;;;;6.70;63.49;101199.84;4932282;28;114631;-68
2021/01/08 04:10:13;;;;;;;3.22;2.30;;;;;;;6.70;63.50;101202.50;4950977;28;124837;-68
2021/01/08 04:12:40;;;;;;;4.15;2.20;;;;;;;6.72;63.40;101195.41;4946633;28;124151;-68
2021/01/08 04:15:07;;;;;;;3.33;2.10;;;;;;;6.74;63.53;101198.91;4927476;28;113216;-67
2021/01/08 04:17:33;;;;;;;3.03;2.13;;;;;;;6.76;63.41;101202.38;4952580;28;113874;-68
2021/01/08 04:20:00;;;;;;;2.97;2.30;;;;;;;6.74;63.46;101198.91;4932107;28;122134;-68
2021/01/08 04:22:26;;;;;;;3.10;2.10;;;;;;;6.75;63.10;101200.63;4944595;28;124533;-68
2021/01/08 04:24:53;;;;;;;3.05;2.25;;;;;;;6.76;63.22;101202.38;4933654;28;114536;-68
2021/01/08 04:27:19;;;;;;;3.05;2.20;;;;;;;6.78;63.15;101194.41;4931319;28;114588;-67
2021/01/08 04:29:46;;;;;;;2.90;2.10;;;;;;;6.79;63.54;101197.00;4950052;28;123938;-68
2021/01/08 04:32:13;;;;;;;3.67;2.33;;;;;;;6.81;63.15;101205.75;4950141;28;124267;-68
2021/01/08 04:34:40;;;;;;;3.05;2.40;;;;;;;6.82;63.13;101196.94;4930876;28;114439;-68
2021/01/08 04:37:06;;;;;;;3.28;2.50;;;;;;;6.85;63.20;101200.41;4921639;28;114273;-68
2021/01/08 04:39:33;;;;;;;3.15;2.25;;;;;;;6.86;63.29;101203.00;4944967;28;124442;-67
2021/01/08 04:42:00;;;;;;;3.58;2.58;;;;;;;6.87;63.28;101210.00;4940879;28;124484;-67
2021/01/08 04:44:27;;;;;;;3.05;2.35;;;;;;;6.89;63.18;101202.06;4924222;28;114653;-68
2021/01/08 04:46:53;;;;;;;3.80;2.60;;;;;;;6.91;63.12;101205.53;4945328;28;113755;-68
2021/01/08 04:49:21;;;;;;;3.65;2.40;;;;;;;6.92;63.30;101207.28;4948620;28;123959;-69
2021/01/08 04:51:47;;;;;;;3.95;2.60;;;;;;;6.93;63.46;101208.97;4928934;28;122872;-68
2021/01/08 04:54:14;;;;;;;5.55;2.78;;;;;;;6.93;63.07;101199.34;4934816;28;114181;-67
2021/01/08 04:56:43;;;;;;;4.05;2.83;;;;;;;6.95;63.28;101207.16;4941827;28;114207;-68
2021/01/08 04:59:10;;;;;;;3.55;2.70;;;;;;;6.96;63.04;101209.78;4934169;28;123781;-67
2021/01/08 05:01:36;;;;;;;4.82;2.88;;;;;;;6.98;63.00;101207.13;4894128;28;123337;-67
2021/01/08 05:04:04;;;;;;;4.15;2.90;;;;;;;6.98;63.24;101217.66;4932760;28;114055;-67
2021/01/08 05:06:32;;;;;;;3.60;2.70;;;;;;;6.99;63.44;101219.38;4926793;28;113082;-67
2021/01/08 05:08:58;;;;;;;6.38;2.78;;;;;;;7.01;63.52;101212.31;4937609;28;123778;-67
2021/01/08 05:11:30;;;;;;;4.38;2.85;;;;;;;7.01;63.19;101217.59;4926660;28;123141;-67
2021/01/08 05:14:00;;;;;;;4.75;2.90;;;;;;;7.01;63.38;101222.84;4937156;28;115233;-67
2021/01/08 05:16:28;;;;;;;3.35;2.55;;;;;;;7.02;62.96;101224.56;4918710;28;113988;-67
2021/01/08 05:18:56;;;;;;;4.30;2.85;;;;;;;7.01;63.18;101218.44;4942304;28;124821;-67
2021/01/08 05:21:26;;;;;;;4.25;2.75;;;;;;;7.02;63.25;101224.56;4943854;28;124163;-67
2021/01/08 05:23:54;;;;;;;5.30;2.80;;;;;;;7.03;63.23;101221.03;4949763;28;115367;-67
2021/01/08 05:26:22;;;;;;;4.45;3.03;;;;;;;7.03;62.94;101226.31;4946407;28;114274;-67
2021/01/08 05:28:53;;;;;;;4.78;3.10;;;;;;;7.05;63.33;101235.03;4947979;28;124096;-67
2021/01/08 05:31:22;;;;;;;5.13;2.83;;;;;;;7.04;62.94;101233.28;4929323;28;122976;-67
2021/01/08 05:33:50;;;;;;;5.20;3.53;;;;;;;7.05;63.43;101232.41;4941641;28;114761;-67
2021/01/08 05:36:17;;;;;;;4.63;3.22;;;;;;;7.06;63.07;101231.47;4928852;28;114604;-67
2021/01/08 05:38:50;;;;;;;7.68;3.65;;;;;;;7.06;63.25;101236.75;4943167;28;124845;-67
2021/01/08 05:41:28;;;;;;;6.95;3.70;;;;;;;7.05;63.43;101232.41;4943905;28;124514;-67
2021/01/08 05:43:56;;;;;;;6.07;4.20;;;;;;;7.07;63.11;101243.75;4938730;28;114572;-67
2021/01/08 05:46:26;;;;;;;4.88;3.67;;;;;;;7.07;63.57;101237.63;4947411;28;114293;-68
2021/01/08 05:48:57;;;;;;;5.82;3.88;;;;;;;7.09;63.22;101235.81;4941102;28;123658;-67
2021/01/08 05:51:33;;;;;;;6.63;4.57;;;;;;;7.08;63.37;101232.31;4940047;28;124715;-68
2021/01/08 05:54:00;;;;;;;6.30;4.35;;;;;;;7.09;63.14;101239.31;4941157;28;114282;-67
2021/01/08 05:56:31;;;;;;;5.75;4.30;;;;;;;7.09;63.04;101241.09;4946693;28;113827;-67
2021/01/08 05:59:01;;;;;;;6.93;4.50;;;;;;;7.10;63.29;101243.69;4934935;28;123984;-68
2021/01/08 06:01:28;;;;;;;6.70;4.65;;;;;;;7.09;63.40;101241.94;4939541;28;124376;-68
2021/01/08 06:03:55;;;;;;;7.85;4.45;;;;;;;7.10;63.13;101251.59;4926206;28;115751;-67
2021/01/08 06:06:24;;;;;;;7.95;4.95;;;;;;;7.10;63.46;101248.97;4948844;28;114845;-68
2021/01/08 06:08:53;;;;;;;7.05;5.40;;;;;;;7.09;63.08;101247.22;4945463;28;124857;-67
2021/01/08 06:11:30;;;;;;;7.82;5.63;;;;;;;7.10;63.33;101248.97;4923269;28;122759;-69
2021/01/08 06:14:01;;;;;;;7.38;5.47;;;;;;;7.11;63.11;101250.69;4943279;28;114563;-67
2021/01/08 06:16:38;;;;;;;7.88;5.78;;;;;;;7.11;63.27;101255.94;4937813;28;113833;-67
2021/01/08 06:19:06;;;;;;;7.60;5.32;;;;;;;7.13;63.16;101263.81;4943426;28;124013;-67
2021/01/08 06:21:42;;;;;;;9.10;5.68;;;;;;;7.12;63.15;101257.69;4940366;28;123779;-67
2021/01/08 06:24:35;;;;;;;;;;;;;;;7.11;63.37;101261.22;4940268;28;114686;-67
2021/01/08 06:27:03;;;;;;;6.80;5.40;;;;;;;7.09;62.94;101260.38;4941662;28;114181;-67
2021/01/08 06:29:33;;;;;;;9.50;5.72;;;;;;;7.06;63.15;101263.09;4945939;28;124062;-67
2021/01/08 06:32:11;;;;;;;9.38;6.00;;;;;;;7.05;63.55;101261.38;4944420;28;124382;-67
2021/01/08 06:34:45;;;;;;;8.75;5.72;;;;;;;7.06;63.15;101263.09;4937098;28;114133;-67
2021/01/08 06:37:14;;;;;;;7.53;5.78;;;;;;;7.08;63.26;101261.28;4947493;28;114731;-67
2021/01/08 06:39:44;;;;;;;9.75;5.80;;;;;;;7.10;63.33;101270.03;4929496;28;123073;-67
2021/01/08 06:42:26;;;;;;;9.00;6.25;;;;;;;7.10;63.41;101264.78;4905669;28;122762;-67
2021/01/08 06:44:54;;;;;;;9.50;6.40;;;;;;;7.13;63.46;101269.94;4940906;28;114269;-67
2021/01/08 06:47:21;;;;;;;8.85;5.93;;;;;;;7.13;63.22;101272.56;4941373;28;114110;-67
2021/01/08 06:49:52;;;;;;;9.80;6.28;;;;;;;7.12;63.20;101276.13;4926393;28;123262;-67
2021/01/08 06:52:23;;;;;;;8.10;5.80;;;;;;;7.13;63.46;101277.84;4927757;28;123662;-67
2021/01/08 06:54:54;;;;;;;7.80;5.72;;;;;;;7.12;63.56;101284.03;4937667;28;115260;-68
2021/01/08 06:57:22;;;;;;;8.57;5.68;;;;;;;7.14;63.12;101282.22;4940254;28;114435;-68
2021/01/08 06:59:55;;;;;;;7.18;5.55;;;;;;;7.13;63.29;101291.00;4936801;28;123491;-67
2021/01/08 07:02:23;;;;;;;7.45;5.13;;;;;;;7.11;63.57;101292.81;4940609;28;124245;-67
2021/01/08 07:04:51;;;;;;;9.00;5.22;;;;;;;7.09;63.39;101294.63;4941621;28;114339;-68
2021/01/08 07:07:23;;;;;;;13.23;5.28;;;;;;;7.08;63.39;101292.88;4924601;28;113601;-67
2021/01/08 07:09:50;;;;;;;6.68;5.07;;;;;;;7.06;63.37;101305.22;4896728;28;123563;-67
2021/01/08 07:12:21;;;;;;;7.28;4.80;;;;;;;7.04;63.33;101307.03;4925534;28;124506;-68
2021/01/08 07:14:49;;;;;;;7.47;4.95;;;;;;;7.05;63.51;101307.91;4918155;28;113984;-67
2021/01/08 07:17:15;;;;;;;6.80;4.82;;;;;;;7.04;63.31;101317.56;4940485;28;113901;-67
2021/01/08 07:19:44;;;;;;;7.53;4.72;;;;;;;7.04;63.47;101312.28;4902088;28;123303;-67
2021/01/08 07:22:20;;;;;;;7.22;4.80;;;;;;;7.04;63.54;101311.44;4925055;28;124574;-67
2021/01/08 07:24:50;;;;;;;5.22;3.83;;;;;;;7.02;63.19;101324.63;4928957;28;113307;-67
2021/01/08 07:27:26;;;;;;;5.72;4.18;;;;;;;6.99;63.18;101324.72;4945185;28;113342;-67
2021/01/08 07:29:54;;;;;;;6.65;4.13;;;;;;;6.97;63.21;101329.16;4941453;28;124277;-67
2021/01/08 07:32:33;;;;;;;5.25;3.50;;;;;;;6.94;63.52;101331.84;4941661;28;124034;-67
2021/01/08 07:35:26;;;;;;;4.50;3.50;;;;;;;6.93;63.60;101330.09;4937340;28;114465;-67
2021/01/08 07:38:04;;;;;;;4.70;3.22;;;;;;;6.92;63.31;101333.66;4940324;28;114143;-67
2021/01/08 07:40:59;;;;;;;4.85;3.40;;;;;;;6.92;63.45;101336.28;4925533;28;124819;-67
2021/01/08 07:43:36;;;;;;;4.82;3.22;;;;;;;6.92;63.23;101338.91;4935780;28;123674;-67
2021/01/08 07:46:04;;;;;;;6.72;3.78;;;;;;;6.93;63.42;101345.91;4914959;28;114476;-68
2021/01/08 07:48:40;;;;;;;4.72;3.55;;;;;;;6.95;63.60;101350.25;4941111;28;115244;-68
2021/01/08 07:51:13;;;;;;;5.85;3.25;;;;;;;6.95;63.44;101352.00;4935965;28;124232;-69
2021/01/08 07:53:44;;;;;;;4.75;3.70;;;;;;;6.97;63.29;101358.13;4918306;28;123919;-69
2021/01/08 07:56:22;;;;;;;5.68;4.03;;;;;;;6.98;63.59;101359.84;4909061;28;113515;-69
2021/01/08 07:58:59;;;;;;;4.80;3.58;;;;;;;6.99;63.63;101372.13;4916669;28;113545;-68
2021/01/08 08:01:27;;;;;;;5.03;3.58;;;;;;;6.98;63.34;101375.66;4909498;28;122581;-69
2021/01/08 08:04:02;;;;;;;5.55;4.00;;;;;;;6.97;63.24;101380.06;4912277;28;123750;-69
2021/01/08 08:06:31;;;;;;;5.25;3.67;;;;;;;7.00;63.51;101381.75;4913161;28;116656;-68
2021/01/08 08:09:00;;;;;;;7.80;4.10;;;;;;;7.02;63.36;101382.56;4909857;28;113924;-69
2021/01/08 08:11:30;;;;;;;5.13;3.70;;;;;;;7.04;63.63;101386.03;4911410;28;123101;-69
2021/01/08 08:13:57;;;;;;;7.82;4.32;;;;;;;7.07;63.44;101380.72;4911430;28;124467;-68
2021/01/08 08:16:37;;;;;;;5.18;3.85;;;;;;;7.09;63.50;101392.09;4916093;28;112881;-70
2021/01/08 08:19:06;;;;;;;6.65;4.25;;;;;;;7.11;63.26;101398.19;4916996;28;114194;-69
2021/01/08 08:21:33;;;;;;;6.53;4.30;;;;;;;7.12;63.47;101405.19;4918121;28;122940;-69
2021/01/08 08:24:02;;;;;;;5.95;4.30;;;;;;;7.11;63.47;101398.19;4914051;28;123007;-69
2021/01/08 08:26:30;;;;;;;6.30;4.22;;;;;;;7.12;63.20;101402.56;4916577;28;114391;-69
2021/01/08 08:29:04;;;;;;;5.75;4.28;;;;;;;7.10;63.29;101407.00;4921074;28;113199;-70
2021/01/08 08:31:33;;;;;;;6.78;4.45;;;;;;;7.10;63.04;101412.28;4910374;28;122979;-68
2021/01/08 08:34:01;;;;;;;7.00;4.72;;;;;;;7.09;63.50;101410.53;4922599;28;123695;-68
2021/01/08 08:36:31;;;;;;;6.85;4.50;;;;;;;7.13;63.53;101416.59;4927866;28;115502;-69
2021/01/08 08:39:12;;;;;;;7.03;4.13;;;;;;;7.13;63.63;101417.44;4911403;28;115044;-68
2021/01/08 08:41:41;;;;;;;6.53;4.32;;;;;;;7.14;63.63;101424.47;4931708;28;123090;-68
2021/01/08 08:44:18;;;;;;;6.10;4.07;;;;;;;7.15;63.17;101425.31;4930924;28;123874;-68
2021/01/08 08:46:48;;;;;;;6.55;4.50;;;;;;;7.16;63.45;101427.94;4919113;28;114361;-67
2021/01/08 08:49:28;;;;;;;6.32;4.50;;;;;;;7.18;63.10;101425.28;4901608;28;112331;-68
2021/01/08 08:51:56;;;;;;;6.28;4.35;;;;;;;7.18;63.36;101431.41;4930971;28;124367;-67
2021/01/08 08:54:26;;;;;;;5.85;4.30;;;;;;;7.20;63.33;101437.50;4916410;28;123761;-68
2021/01/08 08:56:56;;;;;;;5.80;4.20;;;;;;;7.20;63.46;101437.50;4917301;28;115656;-68
2021/01/08 08:59:43;;;;;;;5.63;4.18;;;;;;;7.20;63.32;101439.28;4916960;28;114457;-67
2021/01/08 09:02:21;;;;;;;6.18;4.38;;;;;;;7.21;63.17;101449.78;4932170;28;124689;-68
2021/01/08 09:04:57;;;;;;;6.15;4.35;;;;;;;7.21;63.21;101447.16;4918609;28;124006;-68
2021/01/08 09:07:38;;;;;;;6.93;4.25;;;;;;;7.22;63.33;101454.13;4916411;28;115542;-68
2021/01/08 09:10:13;;;;;;;5.65;4.15;;;;;;;7.25;63.31;101457.59;4922327;28;114239;-68
2021/01/08 09:12:56;;;;;;;6.78;4.40;;;;;;;7.26;63.33;101454.09;4915906;28;123788;-68
2021/01/08 09:15:32;;;;;;;6.28;4.32;;;;;;;7.27;63.24;101456.69;4963600;22;123968;-70
2021/01/08 09:18:10;;;;;;;5.57;4.28;;;;;;;7.27;63.57;101461.97;4954204;28;115976;-70
2021/01/08 09:21:26;;;;;;;5.75;4.30;;;;;;;7.31;63.29;101462.72;4951753;28;114749;-70
2021/01/08 09:23:55;;;;;;;5.88;4.30;;;;;;;7.33;63.59;101460.97;4942170;28;123916;-70
2021/01/08 09:26:22;;;;;;;6.60;4.00;;;;;;;7.35;63.55;101472.34;4918551;28;122670;-70
2021/01/08 09:28:52;;;;;;;10.18;4.43;;;;;;;7.35;63.31;101469.69;4910628;28;114237;-70
2021/01/08 09:31:20;;;;;;;6.35;4.70;;;;;;;7.36;63.46;101471.41;4923277;28;114855;-71
2021/01/08 09:33:57;;;;;;;5.40;3.63;;;;;;;7.37;63.43;101467.91;4932800;28;124101;-70
2021/01/08 09:36:36;;;;;;;4.82;3.35;;;;;;;7.37;63.24;101467.91;4914470;28;124371;-70
2021/01/08 09:39:10;;;;;;;5.45;3.70;;;;;;;7.39;63.48;101476.63;4942019;28;114281;-70
2021/01/08 09:41:39;;;;;;;5.20;3.80;;;;;;;7.44;63.74;101479.16;4923590;28;113105;-70
2021/01/08 09:44:08;;;;;;;5.10;3.42;;;;;;;7.46;63.49;101480.88;4939874;28;124714;-70
2021/01/08 09:46:58;;;;;;;6.78;3.35;;;;;;;7.47;63.69;101473.81;4940717;28;124644;-70
2021/01/08 09:49:36;;;;;;;5.22;3.08;;;;;;;7.50;63.35;101484.31;4914133;28;114964;-70
2021/01/08 09:52:04;;;;;;;5.10;3.40;;;;;;;7.53;63.64;101485.09;4933683;28;113740;-70
2021/01/08 09:54:47;;;;;;;4.35;3.25;;;;;;;7.54;63.63;101481.56;4914112;28;122904;-70
2021/01/08 09:57:34;;;;;;;4.35;3.30;;;;;;;7.55;63.25;101488.59;4915231;28;124621;-70
2021/01/08 10:00:07;;;;;;;4.57;3.30;;;;;;;7.55;63.60;101488.59;4933477;28;114224;-70
2021/01/08 10:02:52;;;;;;;3.80;2.83;;;;;;;7.56;63.45;101490.28;4931553;28;114315;-70
2021/01/08 10:05:18;;;;;;;5.95;3.08;;;;;;;7.56;63.38;101492.94;4915912;28;125547;-70
2021/01/08 10:07:46;;;;;;;4.78;2.88;;;;;;;7.58;63.39;101493.75;4933299;28;123803;-70
2021/01/08 10:10:23;;;;;;;6.30;2.78;;;;;;;7.58;63.67;101491.13;4925370;28;113124;-70
2021/01/08 10:12:50;;;;;;;4.55;3.10;;;;;;;7.59;63.46;101486.72;4935514;28;114527;-71
2021/01/08 10:15:18;;;;;;;6.40;3.10;;;;;;;7.62;63.31;101493.72;4940858;28;124346;-70
2021/01/08 10:17:50;;;;;;;5.53;3.30;;;;;;;7.62;63.29;101491.06;4930683;28;123501;-71
2021/01/08 10:20:19;;;;;;;6.00;3.30;;;;;;;7.62;63.53;101494.56;4933137;28;115641;-70
2021/01/08 10:22:51;;;;;;;5.53;3.95;;;;;;;7.62;63.53;101498.97;4946163;28;115482;-71
2021/01/08 10:25:29;;;;;;;4.82;3.35;;;;;;;7.62;63.56;101491.06;4951132;28;124371;-70
2021/01/08 10:28:19;;;;;;;6.47;3.92;;;;;;;7.63;63.32;101500.69;4935552;28;124527;-70
2021/01/08 10:30:49;;;;;;;6.18;4.05;;;;;;;7.64;63.54;101502.44;4903723;28;114180;-70
2021/01/08 10:33:25;;;;;;;5.28;3.80;;;;;;;7.67;63.58;101512.94;4925355;28;114233;-70
2021/01/08 10:35:58;;;;;;;7.60;4.13;;;;;;;7.69;63.61;101505.84;4912422;28;123167;-71
2021/01/08 10:38:24;;;;;;;6.65;4.25;;;;;;;7.69;63.57;101505.84;4928924;28;124717;-71
2021/01/08 10:40:51;;;;;;;6.25;3.97;;;;;;;7.70;63.41;101512.84;4912792;28;114616;-71
2021/01/08 10:43:18;;;;;;;6.60;4.22;;;;;;;7.70;63.23;101507.56;4928325;28;114490;-70
2021/01/08 10:45:45;;;;;;;5.90;4.32;;;;;;;7.72;63.39;101511.03;4931273;28;124415;-70
2021/01/08 10:48:14;;;;;;;6.40;4.40;;;;;;;7.71;63.29;101509.31;4930192;28;123246;-70
2021/01/08 10:50:41;;;;;;;5.40;4.20;;;;;;;7.73;63.52;101510.16;4914642;28;115963;-70
2021/01/08 10:53:07;;;;;;;6.57;4.82;;;;;;;7.72;63.18;101511.03;4911755;28;114098;-71
2021/01/08 10:55:35;;;;;;;6.80;4.57;;;;;;;7.71;63.35;101507.53;4922826;28;123875;-71
2021/01/08 10:58:02;;;;;;;6.88;4.65;;;;;;;7.72;63.21;101511.94;4922381;28;124390;-70
2021/01/08 11:00:29;;;;;;;7.15;5.10;;;;;;;7.72;63.29;101508.41;4919788;28;114406;-70
2021/01/08 11:02:55;;;;;;;10.13;5.20;;;;;;;7.72;63.69;101511.03;4922606;28;113969;-71
2021/01/08 11:05:22;;;;;;;7.82;4.88;;;;;;;7.72;63.34;101505.75;4920514;28;123997;-71
2021/01/08 11:07:49;;;;;;;7.85;5.68;;;;;;;7.71;63.27;101515.47;4923971;28;124173;-70
2021/01/08 11:10:16;;;;;;;8.13;5.25;;;;;;;7.71;63.18;101504.91;4926228;28;115189;-70
2021/01/08 11:12:43;;;;;;;6.78;5.18;;;;;;;7.71;63.38;101506.69;4913130;28;113825;-71
2021/01/08 11:15:11;;;;;;;7.72;5.30;;;;;;;7.70;63.56;101503.16;4919104;28;124252;-70
2021/01/08 11:17:37;;;;;;;7.35;4.97;;;;;;;7.72;63.25;101516.31;4915988;28;124321;-71
2021/01/08 11:20:05;;;;;;;6.82;5.03;;;;;;;7.71;63.63;101504.06;4916227;28;113445;-71
2021/01/08 11:22:32;;;;;;;6.22;4.63;;;;;;;7.73;63.10;101504.88;4938792;28;113860;-71
2021/01/08 11:24:59;;;;;;;6.85;4.60;;;;;;;7.75;63.13;101505.72;4942379;28;124039;-71
2021/01/08 11:27:25;;;;;;;7.50;4.38;;;;;;;7.77;63.41;101509.19;4909354;28;123604;-71
2021/01/08 11:29:52;;;;;;;5.53;4.22;;;;;;;7.78;63.30;101503.88;4943477;28;115381;-70
2021/01/08 11:32:18;;;;;;;8.00;4.75;;;;;;;7.79;63.06;101502.94;4916561;28;113160;-71
2021/01/08 11:34:45;;;;;;;7.10;4.65;;;;;;;7.81;63.38;101505.56;4912884;28;124694;-71
2021/01/08 11:37:13;;;;;;;6.35;4.47;;;;;;;7.82;63.14;101512.59;4944288;28;124154;-70